sensor_id;sensor_type;location;lat;lon;timestamp;temperature;humidity
16477;DHT22;8349;50.928;6.376;2022-08-19T00:01:17;18.00;99.90
16477;DHT22;8349;50.928;6.376;2022-08-19T00:03:44;17.90;99.90
16477;DHT22;8349;50.928;6.376;2022-08-19T00:06:10;17.90;99.90
16477;DHT22;8349;50.928;6.376;2022-08-19T00:08:39;17.80;99.90
16477;DHT22;8349;50.928;6.376;2022-08-19T00:11:06;17.80;99.90
16477;DHT22;8349;50.928;6.376;2022-08-19T00:13:33;17.70;99.90
16477;DHT22;8349;50.928;6.376;2022-08-19T00:16:00;17.70;99.90
16477;DHT22;8349;50.928;6.376;2022-08-19T00:18:27;17.70;99.90
16477;DHT22;8349;50.928;6.376;2022-08-19T00:20:54;17.60;99.90
16477;DHT22;8349;50.928;6.376;2022-08-19T00:23:20;17.60;99.90
16477;DHT22;8349;50.928;6.376;2022-08-19T00:25:49;17.60;99.90
16477;DHT22;8349;50.928;6.376;2022-08-19T00:28:16;17.60;99.90
16477;DHT22;8349;50.928;6.376;2022-08-19T00:30:42;17.60;99.90
16477;DHT22;8349;50.928;6.376;2022-08-19T00:33:09;17.50;99.90
16477;DHT22;8349;50.928;6.376;2022-08-19T00:35:36;17.50;99.90
16477;DHT22;8349;50.928;6.376;2022-08-19T00:38:03;17.50;99.90
16477;DHT22;8349;50.928;6.376;2022-08-19T00:40:31;17.50;99.90
16477;DHT22;8349;50.928;6.376;2022-08-19T00:43:00;17.50;99.90
16477;DHT22;8349;50.928;6.376;2022-08-19T00:45:27;17.40;99.90
16477;DHT22;8349;50.928;6.376;2022-08-19T00:47:55;17.40;99.90
16477;DHT22;8349;50.928;6.376;2022-08-19T00:50:22;17.30;99.90
16477;DHT22;8349;50.928;6.376;2022-08-19T00:52:50;17.30;99.90
16477;DHT22;8349;50.928;6.376;2022-08-19T00:55:18;17.20;99.90
16477;DHT22;8349;50.928;6.376;2022-08-19T00:57:45;17.20;99.90
16477;DHT22;8349;50.928;6.376;2022-08-19T01:00:16;17.20;99.90
16477;DHT22;8349;50.928;6.376;2022-08-19T01:02:44;17.20;99.90
16477;DHT22;8349;50.928;6.376;2022-08-19T01:05:11;17.20;99.90
16477;DHT22;8349;50.928;6.376;2022-08-19T01:07:40;17.20;99.90
16477;DHT22;8349;50.928;6.376;2022-08-19T01:10:08;17.20;99.90
16477;DHT22;8349;50.928;6.376;2022-08-19T01:12:35;17.10;99.90
16477;DHT22;8349;50.928;6.376;2022-08-19T01:15:04;17.10;99.90
16477;DHT22;8349;50.928;6.376;2022-08-19T01:17:33;17.10;99.90
16477;DHT22;8349;50.928;6.376;2022-08-19T01:20:01;17.10;99.90
16477;DHT22;8349;50.928;6.376;2022-08-19T01:22:29;17.10;99.90
16477;DHT22;8349;50.928;6.376;2022-08-19T01:24:57;17.00;99.90
16477;DHT22;8349;50.928;6.376;2022-08-19T01:27:24;17.00;99.90
16477;DHT22;8349;50.928;6.376;2022-08-19T01:29:50;17.00;99.90
16477;DHT22;8349;50.928;6.376;2022-08-19T01:32:17;17.00;99.90
16477;DHT22;8349;50.928;6.376;2022-08-19T01:34:44;17.00;99.90
16477;DHT22;8349;50.928;6.376;2022-08-19T01:37:13;17.00;99.90
16477;DHT22;8349;50.928;6.376;2022-08-19T01:39:42;17.00;99.90
16477;DHT22;8349;50.928;6.376;2022-08-19T01:42:09;17.10;99.90
16477;DHT22;8349;50.928;6.376;2022-08-19T01:44:37;17.10;99.90
16477;DHT22;8349;50.928;6.376;2022-08-19T01:47:04;17.00;99.90
16477;DHT22;8349;50.928;6.376;2022-08-19T01:49:32;17.00;99.90
16477;DHT22;8349;50.928;6.376;2022-08-19T01:51:59;17.00;99.90
16477;DHT22;8349;50.928;6.376;2022-08-19T01:54:26;17.00;99.90
16477;DHT22;8349;50.928;6.376;2022-08-19T01:56:55;17.00;99.90
16477;DHT22;8349;50.928;6.376;2022-08-19T01:59:22;17.00;99.90
16477;DHT22;8349;50.928;6.376;2022-08-19T02:01:49;16.90;99.90
16477;DHT22;8349;50.928;6.376;2022-08-19T02:04:16;16.90;99.90
16477;DHT22;8349;50.928;6.376;2022-08-19T02:06:43;16.90;99.90
16477;DHT22;8349;50.928;6.376;2022-08-19T02:09:10;16.80;99.90
16477;DHT22;8349;50.928;6.376;2022-08-19T02:11:36;16.80;99.90
16477;DHT22;8349;50.928;6.376;2022-08-19T02:14:06;16.80;99.90
16477;DHT22;8349;50.928;6.376;2022-08-19T02:16:33;16.80;99.90
16477;DHT22;8349;50.928;6.376;2022-08-19T02:19:00;16.80;99.90
16477;DHT22;8349;50.928;6.376;2022-08-19T02:21:28;16.80;99.90
16477;DHT22;8349;50.928;6.376;2022-08-19T02:23:55;16.70;99.90
16477;DHT22;8349;50.928;6.376;2022-08-19T02:26:22;16.80;99.90
16477;DHT22;8349;50.928;6.376;2022-08-19T02:28:49;16.80;99.90
16477;DHT22;8349;50.928;6.376;2022-08-19T02:31:18;16.90;99.90
16477;DHT22;8349;50.928;6.376;2022-08-19T02:33:45;16.90;99.90
16477;DHT22;8349;50.928;6.376;2022-08-19T02:36:12;16.90;99.90
16477;DHT22;8349;50.928;6.376;2022-08-19T02:38:39;16.90;99.90
16477;DHT22;8349;50.928;6.376;2022-08-19T02:41:07;17.00;99.90
16477;DHT22;8349;50.928;6.376;2022-08-19T02:43:35;17.00;99.90
16477;DHT22;8349;50.928;6.376;2022-08-19T02:46:02;17.00;99.90
16477;DHT22;8349;50.928;6.376;2022-08-19T02:48:38;17.00;99.90
16477;DHT22;8349;50.928;6.376;2022-08-19T02:51:05;17.00;99.90
16477;DHT22;8349;50.928;6.376;2022-08-19T02:53:32;17.00;99.90
16477;DHT22;8349;50.928;6.376;2022-08-19T02:55:59;17.00;99.90
16477;DHT22;8349;50.928;6.376;2022-08-19T02:58:26;16.90;99.90
16477;DHT22;8349;50.928;6.376;2022-08-19T03:00:54;17.00;99.90
16477;DHT22;8349;50.928;6.376;2022-08-19T03:03:21;17.00;99.90
16477;DHT22;8349;50.928;6.376;2022-08-19T03:05:50;16.90;99.90
16477;DHT22;8349;50.928;6.376;2022-08-19T03:08:17;16.90;99.90
16477;DHT22;8349;50.928;6.376;2022-08-19T03:10:44;17.00;99.90
16477;DHT22;8349;50.928;6.376;2022-08-19T03:13:12;16.90;99.90
16477;DHT22;8349;50.928;6.376;2022-08-19T03:15:40;17.00;99.90
16477;DHT22;8349;50.928;6.376;2022-08-19T03:18:07;16.90;99.90
16477;DHT22;8349;50.928;6.376;2022-08-19T03:20:39;16.90;99.90
16477;DHT22;8349;50.928;6.376;2022-08-19T03:23:07;16.90;99.90
16477;DHT22;8349;50.928;6.376;2022-08-19T03:25:36;16.90;99.90
16477;DHT22;8349;50.928;6.376;2022-08-19T03:28:03;16.80;99.90
16477;DHT22;8349;50.928;6.376;2022-08-19T03:30:30;16.80;99.90
16477;DHT22;8349;50.928;6.376;2022-08-19T03:32:56;16.80;99.90
16477;DHT22;8349;50.928;6.376;2022-08-19T03:35:23;16.80;99.90
16477;DHT22;8349;50.928;6.376;2022-08-19T03:37:50;16.70;99.90
16477;DHT22;8349;50.928;6.376;2022-08-19T03:40:19;16.70;99.90
16477;DHT22;8349;50.928;6.376;2022-08-19T03:42:46;16.70;99.90
16477;DHT22;8349;50.928;6.376;2022-08-19T03:45:13;16.70;99.90
16477;DHT22;8349;50.928;6.376;2022-08-19T03:47:39;16.70;99.90
16477;DHT22;8349;50.928;6.376;2022-08-19T03:50:06;16.70;99.90
16477;DHT22;8349;50.928;6.376;2022-08-19T03:52:34;16.60;99.90
16477;DHT22;8349;50.928;6.376;2022-08-19T03:55:01;16.70;99.90
16477;DHT22;8349;50.928;6.376;2022-08-19T03:57:29;16.70;99.90
16477;DHT22;8349;50.928;6.376;2022-08-19T03:59:56;16.70;99.90
16477;DHT22;8349;50.928;6.376;2022-08-19T04:02:23;16.70;99.90
16477;DHT22;8349;50.928;6.376;2022-08-19T04:04:49;16.70;99.90
16477;DHT22;8349;50.928;6.376;2022-08-19T04:07:19;16.70;99.90
16477;DHT22;8349;50.928;6.376;2022-08-19T04:09:46;16.70;99.90
16477;DHT22;8349;50.928;6.376;2022-08-19T04:12:14;16.60;99.90
16477;DHT22;8349;50.928;6.376;2022-08-19T04:14:42;16.70;99.90
16477;DHT22;8349;50.928;6.376;2022-08-19T04:17:09;16.70;99.90
16477;DHT22;8349;50.928;6.376;2022-08-19T04:19:39;16.70;99.90
16477;DHT22;8349;50.928;6.376;2022-08-19T04:22:06;16.70;99.90
16477;DHT22;8349;50.928;6.376;2022-08-19T04:24:33;16.70;99.90
16477;DHT22;8349;50.928;6.376;2022-08-19T04:27:00;16.70;99.90
16477;DHT22;8349;50.928;6.376;2022-08-19T04:29:28;16.70;99.90
16477;DHT22;8349;50.928;6.376;2022-08-19T04:31:57;16.70;99.90
16477;DHT22;8349;50.928;6.376;2022-08-19T04:34:24;16.70;99.90
16477;DHT22;8349;50.928;6.376;2022-08-19T04:36:52;16.70;99.90
16477;DHT22;8349;50.928;6.376;2022-08-19T04:39:20;16.70;99.90
16477;DHT22;8349;50.928;6.376;2022-08-19T04:41:47;16.70;99.90
16477;DHT22;8349;50.928;6.376;2022-08-19T04:44:31;16.80;99.90
16477;DHT22;8349;50.928;6.376;2022-08-19T04:47:00;16.80;99.90
16477;DHT22;8349;50.928;6.376;2022-08-19T04:49:28;16.80;99.90
16477;DHT22;8349;50.928;6.376;2022-08-19T04:51:55;16.90;99.90
16477;DHT22;8349;50.928;6.376;2022-08-19T04:54:22;16.90;99.90
16477;DHT22;8349;50.928;6.376;2022-08-19T04:56:50;16.90;99.90
16477;DHT22;8349;50.928;6.376;2022-08-19T04:59:18;17.00;99.90
16477;DHT22;8349;50.928;6.376;2022-08-19T05:01:46;17.00;99.90
16477;DHT22;8349;50.928;6.376;2022-08-19T05:04:19;17.10;99.90
16477;DHT22;8349;50.928;6.376;2022-08-19T05:06:46;17.10;99.90
16477;DHT22;8349;50.928;6.376;2022-08-19T05:09:13;17.20;99.90
16477;DHT22;8349;50.928;6.376;2022-08-19T05:11:41;17.20;99.90
16477;DHT22;8349;50.928;6.376;2022-08-19T05:14:08;17.30;99.90
16477;DHT22;8349;50.928;6.376;2022-08-19T05:16:37;17.30;99.90
16477;DHT22;8349;50.928;6.376;2022-08-19T05:19:04;17.30;99.90
16477;DHT22;8349;50.928;6.376;2022-08-19T05:21:50;17.30;99.90
16477;DHT22;8349;50.928;6.376;2022-08-19T05:24:35;17.30;99.90
16477;DHT22;8349;50.928;6.376;2022-08-19T05:27:02;17.40;99.90
16477;DHT22;8349;50.928;6.376;2022-08-19T05:29:31;17.40;99.90
16477;DHT22;8349;50.928;6.376;2022-08-19T05:31:59;17.40;99.90
16477;DHT22;8349;50.928;6.376;2022-08-19T05:34:26;17.40;99.90
16477;DHT22;8349;50.928;6.376;2022-08-19T05:36:56;17.50;99.90
16477;DHT22;8349;50.928;6.376;2022-08-19T05:39:24;17.60;99.90
16477;DHT22;8349;50.928;6.376;2022-08-19T05:41:52;17.70;99.90
16477;DHT22;8349;50.928;6.376;2022-08-19T05:44:19;17.70;99.90
16477;DHT22;8349;50.928;6.376;2022-08-19T05:46:47;17.80;99.90
16477;DHT22;8349;50.928;6.376;2022-08-19T05:49:19;17.80;99.90
16477;DHT22;8349;50.928;6.376;2022-08-19T05:51:46;17.80;99.90
16477;DHT22;8349;50.928;6.376;2022-08-19T05:54:14;17.80;99.90
16477;DHT22;8349;50.928;6.376;2022-08-19T05:56:41;17.90;99.90
16477;DHT22;8349;50.928;6.376;2022-08-19T05:59:09;17.90;99.90
16477;DHT22;8349;50.928;6.376;2022-08-19T06:01:36;17.90;99.90
16477;DHT22;8349;50.928;6.376;2022-08-19T06:04:03;18.00;99.90
16477;DHT22;8349;50.928;6.376;2022-08-19T06:06:30;18.00;99.90
16477;DHT22;8349;50.928;6.376;2022-08-19T06:08:59;18.00;99.90
16477;DHT22;8349;50.928;6.376;2022-08-19T06:11:33;18.00;99.90
16477;DHT22;8349;50.928;6.376;2022-08-19T06:14:02;18.10;99.90
16477;DHT22;8349;50.928;6.376;2022-08-19T06:16:29;18.10;99.90
16477;DHT22;8349;50.928;6.376;2022-08-19T06:18:59;18.20;99.90
16477;DHT22;8349;50.928;6.376;2022-08-19T06:21:27;18.30;99.90
16477;DHT22;8349;50.928;6.376;2022-08-19T06:23:54;18.30;99.90
16477;DHT22;8349;50.928;6.376;2022-08-19T06:26:21;18.40;99.90
16477;DHT22;8349;50.928;6.376;2022-08-19T06:28:50;18.40;99.90
16477;DHT22;8349;50.928;6.376;2022-08-19T06:31:22;18.50;99.90
16477;DHT22;8349;50.928;6.376;2022-08-19T06:33:49;18.60;99.90
16477;DHT22;8349;50.928;6.376;2022-08-19T06:36:17;18.70;99.90
16477;DHT22;8349;50.928;6.376;2022-08-19T06:38:44;18.80;99.90
16477;DHT22;8349;50.928;6.376;2022-08-19T06:41:10;18.80;99.90
16477;DHT22;8349;50.928;6.376;2022-08-19T06:43:37;18.80;99.90
16477;DHT22;8349;50.928;6.376;2022-08-19T06:46:08;18.80;99.90
16477;DHT22;8349;50.928;6.376;2022-08-19T06:48:35;18.80;99.90
16477;DHT22;8349;50.928;6.376;2022-08-19T06:51:02;18.80;99.90
16477;DHT22;8349;50.928;6.376;2022-08-19T06:53:31;18.90;99.90
16477;DHT22;8349;50.928;6.376;2022-08-19T06:55:57;19.00;99.90
16477;DHT22;8349;50.928;6.376;2022-08-19T06:58:27;19.00;99.90
16477;DHT22;8349;50.928;6.376;2022-08-19T07:00:58;19.10;99.90
16477;DHT22;8349;50.928;6.376;2022-08-19T07:03:28;19.00;99.90
16477;DHT22;8349;50.928;6.376;2022-08-19T07:05:56;18.90;99.90
16477;DHT22;8349;50.928;6.376;2022-08-19T07:08:24;19.00;99.90
16477;DHT22;8349;50.928;6.376;2022-08-19T07:10:51;19.10;99.90
16477;DHT22;8349;50.928;6.376;2022-08-19T07:13:18;19.00;99.90
16477;DHT22;8349;50.928;6.376;2022-08-19T07:15:46;19.10;99.90
16477;DHT22;8349;50.928;6.376;2022-08-19T07:18:16;19.20;99.90
16477;DHT22;8349;50.928;6.376;2022-08-19T07:20:44;19.20;99.90
16477;DHT22;8349;50.928;6.376;2022-08-19T07:23:11;19.30;99.90
16477;DHT22;8349;50.928;6.376;2022-08-19T07:25:38;19.30;99.90
16477;DHT22;8349;50.928;6.376;2022-08-19T07:28:05;19.40;99.90
16477;DHT22;8349;50.928;6.376;2022-08-19T07:30:32;19.50;99.90
16477;DHT22;8349;50.928;6.376;2022-08-19T07:33:02;19.50;99.90
16477;DHT22;8349;50.928;6.376;2022-08-19T07:35:29;19.60;99.90
16477;DHT22;8349;50.928;6.376;2022-08-19T07:37:58;19.70;99.90
16477;DHT22;8349;50.928;6.376;2022-08-19T07:40:27;19.90;99.90
16477;DHT22;8349;50.928;6.376;2022-08-19T07:42:54;19.90;99.90
16477;DHT22;8349;50.928;6.376;2022-08-19T07:45:21;19.90;99.90
16477;DHT22;8349;50.928;6.376;2022-08-19T07:47:48;20.10;99.90
16477;DHT22;8349;50.928;6.376;2022-08-19T07:50:15;20.20;99.90
16477;DHT22;8349;50.928;6.376;2022-08-19T07:52:43;20.40;99.90
16477;DHT22;8349;50.928;6.376;2022-08-19T07:55:11;20.50;99.90
16477;DHT22;8349;50.928;6.376;2022-08-19T07:57:38;20.50;99.90
16477;DHT22;8349;50.928;6.376;2022-08-19T08:00:05;20.60;99.90
16477;DHT22;8349;50.928;6.376;2022-08-19T08:02:37;20.60;99.90
16477;DHT22;8349;50.928;6.376;2022-08-19T08:05:04;20.80;99.90
16477;DHT22;8349;50.928;6.376;2022-08-19T08:07:48;21.00;99.90
16477;DHT22;8349;50.928;6.376;2022-08-19T08:10:34;21.20;99.90
16477;DHT22;8349;50.928;6.376;2022-08-19T08:13:01;21.30;99.90
16477;DHT22;8349;50.928;6.376;2022-08-19T08:15:31;21.40;99.90
16477;DHT22;8349;50.928;6.376;2022-08-19T08:17:57;21.40;99.90
16477;DHT22;8349;50.928;6.376;2022-08-19T08:20:24;21.40;99.90
16477;DHT22;8349;50.928;6.376;2022-08-19T08:22:51;21.40;99.90
16477;DHT22;8349;50.928;6.376;2022-08-19T08:25:37;21.50;99.90
16477;DHT22;8349;50.928;6.376;2022-08-19T08:28:04;21.60;99.90
16477;DHT22;8349;50.928;6.376;2022-08-19T08:30:32;21.60;99.90
16477;DHT22;8349;50.928;6.376;2022-08-19T08:33:01;21.70;99.90
16477;DHT22;8349;50.928;6.376;2022-08-19T08:35:28;21.90;99.90
16477;DHT22;8349;50.928;6.376;2022-08-19T08:37:55;21.90;99.90
16477;DHT22;8349;50.928;6.376;2022-08-19T08:40:23;22.00;99.90
16477;DHT22;8349;50.928;6.376;2022-08-19T08:42:55;22.10;99.90
16477;DHT22;8349;50.928;6.376;2022-08-19T08:45:25;21.90;99.90
16477;DHT22;8349;50.928;6.376;2022-08-19T08:47:53;21.90;99.90
16477;DHT22;8349;50.928;6.376;2022-08-19T08:50:25;21.90;99.90
16477;DHT22;8349;50.928;6.376;2022-08-19T08:52:56;21.90;99.90
16477;DHT22;8349;50.928;6.376;2022-08-19T08:55:24;21.80;99.90
16477;DHT22;8349;50.928;6.376;2022-08-19T08:57:53;21.70;99.90
16477;DHT22;8349;50.928;6.376;2022-08-19T09:00:23;21.60;99.90
16477;DHT22;8349;50.928;6.376;2022-08-19T09:02:52;21.50;99.90
16477;DHT22;8349;50.928;6.376;2022-08-19T09:05:19;21.30;99.90
16477;DHT22;8349;50.928;6.376;2022-08-19T09:07:49;21.40;99.90
16477;DHT22;8349;50.928;6.376;2022-08-19T09:10:17;21.40;99.90
16477;DHT22;8349;50.928;6.376;2022-08-19T09:12:47;21.40;99.90
16477;DHT22;8349;50.928;6.376;2022-08-19T09:15:21;21.80;99.90
16477;DHT22;8349;50.928;6.376;2022-08-19T09:17:50;22.00;99.90
16477;DHT22;8349;50.928;6.376;2022-08-19T09:20:18;22.20;99.90
16477;DHT22;8349;50.928;6.376;2022-08-19T09:22:45;22.30;99.90
16477;DHT22;8349;50.928;6.376;2022-08-19T09:25:16;22.20;99.90
16477;DHT22;8349;50.928;6.376;2022-08-19T09:27:45;22.20;99.90
16477;DHT22;8349;50.928;6.376;2022-08-19T09:30:14;22.20;99.90
16477;DHT22;8349;50.928;6.376;2022-08-19T09:32:41;22.40;99.90
16477;DHT22;8349;50.928;6.376;2022-08-19T09:35:10;22.40;99.90
16477;DHT22;8349;50.928;6.376;2022-08-19T09:37:37;22.40;99.90
16477;DHT22;8349;50.928;6.376;2022-08-19T09:40:04;22.50;99.90
16477;DHT22;8349;50.928;6.376;2022-08-19T09:42:32;22.50;99.90
16477;DHT22;8349;50.928;6.376;2022-08-19T09:44:59;22.70;99.90
16477;DHT22;8349;50.928;6.376;2022-08-19T09:47:26;22.70;99.90
16477;DHT22;8349;50.928;6.376;2022-08-19T09:49:52;22.80;99.90
16477;DHT22;8349;50.928;6.376;2022-08-19T09:52:21;22.80;99.90
16477;DHT22;8349;50.928;6.376;2022-08-19T09:54:51;22.80;99.90
16477;DHT22;8349;50.928;6.376;2022-08-19T09:57:18;22.80;99.90
16477;DHT22;8349;50.928;6.376;2022-08-19T09:59:45;22.80;99.90
16477;DHT22;8349;50.928;6.376;2022-08-19T10:02:11;22.80;99.90
16477;DHT22;8349;50.928;6.376;2022-08-19T10:04:39;22.90;99.90
16477;DHT22;8349;50.928;6.376;2022-08-19T10:07:33;22.70;99.90
16477;DHT22;8349;50.928;6.376;2022-08-19T10:10:00;22.90;99.90
16477;DHT22;8349;50.928;6.376;2022-08-19T10:12:27;23.10;99.90
16477;DHT22;8349;50.928;6.376;2022-08-19T10:14:54;23.00;99.90
16477;DHT22;8349;50.928;6.376;2022-08-19T10:17:21;23.00;99.90
16477;DHT22;8349;50.928;6.376;2022-08-19T10:19:47;23.00;99.90
16477;DHT22;8349;50.928;6.376;2022-08-19T10:22:14;23.30;99.90
16477;DHT22;8349;50.928;6.376;2022-08-19T10:24:43;23.40;99.90
16477;DHT22;8349;50.928;6.376;2022-08-19T10:27:09;23.80;99.90
16477;DHT22;8349;50.928;6.376;2022-08-19T10:29:38;23.70;99.90
16477;DHT22;8349;50.928;6.376;2022-08-19T10:32:06;24.00;99.90
16477;DHT22;8349;50.928;6.376;2022-08-19T10:34:33;24.60;99.90
16477;DHT22;8349;50.928;6.376;2022-08-19T10:37:01;24.80;99.90
16477;DHT22;8349;50.928;6.376;2022-08-19T10:39:30;24.40;99.90
16477;DHT22;8349;50.928;6.376;2022-08-19T10:41:58;24.50;99.90
16477;DHT22;8349;50.928;6.376;2022-08-19T10:44:25;24.30;99.90
16477;DHT22;8349;50.928;6.376;2022-08-19T10:46:55;24.20;99.90
16477;DHT22;8349;50.928;6.376;2022-08-19T10:49:22;24.10;99.90
16477;DHT22;8349;50.928;6.376;2022-08-19T10:51:49;24.30;99.90
16477;DHT22;8349;50.928;6.376;2022-08-19T10:54:33;24.80;99.90
16477;DHT22;8349;50.928;6.376;2022-08-19T10:57:19;25.30;99.90
16477;DHT22;8349;50.928;6.376;2022-08-19T10:59:49;25.30;99.90
16477;DHT22;8349;50.928;6.376;2022-08-19T11:02:16;25.20;99.90
16477;DHT22;8349;50.928;6.376;2022-08-19T11:04:43;25.40;99.90
16477;DHT22;8349;50.928;6.376;2022-08-19T11:07:09;25.50;99.90
16477;DHT22;8349;50.928;6.376;2022-08-19T11:09:37;25.70;99.90
16477;DHT22;8349;50.928;6.376;2022-08-19T11:12:05;25.70;99.90
16477;DHT22;8349;50.928;6.376;2022-08-19T11:14:34;25.70;99.90
16477;DHT22;8349;50.928;6.376;2022-08-19T11:17:01;25.70;99.90
16477;DHT22;8349;50.928;6.376;2022-08-19T11:19:28;25.60;99.90
16477;DHT22;8349;50.928;6.376;2022-08-19T11:21:55;25.20;99.90
16477;DHT22;8349;50.928;6.376;2022-08-19T11:24:22;25.00;99.90
16477;DHT22;8349;50.928;6.376;2022-08-19T11:26:49;25.30;99.90
16477;DHT22;8349;50.928;6.376;2022-08-19T11:29:17;26.00;99.90
16477;DHT22;8349;50.928;6.376;2022-08-19T11:31:46;26.00;99.90
16477;DHT22;8349;50.928;6.376;2022-08-19T11:34:14;25.80;99.90
16477;DHT22;8349;50.928;6.376;2022-08-19T11:36:42;27.50;99.90
16477;DHT22;8349;50.928;6.376;2022-08-19T11:39:11;28.30;99.90
16477;DHT22;8349;50.928;6.376;2022-08-19T11:41:38;29.80;99.90
16477;DHT22;8349;50.928;6.376;2022-08-19T11:44:05;30.20;99.90
16477;DHT22;8349;50.928;6.376;2022-08-19T11:46:33;31.60;99.90
16477;DHT22;8349;50.928;6.376;2022-08-19T11:49:02;31.80;99.90
16477;DHT22;8349;50.928;6.376;2022-08-19T11:51:30;32.90;99.90
16477;DHT22;8349;50.928;6.376;2022-08-19T11:53:58;32.60;99.90
16477;DHT22;8349;50.928;6.376;2022-08-19T11:56:25;32.60;99.90
16477;DHT22;8349;50.928;6.376;2022-08-19T11:58:52;32.70;99.90
16477;DHT22;8349;50.928;6.376;2022-08-19T12:01:20;33.60;99.90
16477;DHT22;8349;50.928;6.376;2022-08-19T12:03:48;33.50;99.90
16477;DHT22;8349;50.928;6.376;2022-08-19T12:06:18;32.60;99.90
16477;DHT22;8349;50.928;6.376;2022-08-19T12:08:45;33.00;99.90
16477;DHT22;8349;50.928;6.376;2022-08-19T12:11:12;33.30;99.90
16477;DHT22;8349;50.928;6.376;2022-08-19T12:13:40;33.00;99.90
16477;DHT22;8349;50.928;6.376;2022-08-19T12:16:12;33.90;99.90
16477;DHT22;8349;50.928;6.376;2022-08-19T12:18:39;34.90;99.90
16477;DHT22;8349;50.928;6.376;2022-08-19T12:21:06;34.50;99.90
16477;DHT22;8349;50.928;6.376;2022-08-19T12:23:36;33.40;99.90
16477;DHT22;8349;50.928;6.376;2022-08-19T12:26:03;33.60;99.90
16477;DHT22;8349;50.928;6.376;2022-08-19T12:28:30;33.90;99.90
16477;DHT22;8349;50.928;6.376;2022-08-19T12:30:57;34.10;99.90
16477;DHT22;8349;50.928;6.376;2022-08-19T12:33:24;34.80;99.90
16477;DHT22;8349;50.928;6.376;2022-08-19T12:35:53;34.40;99.90
16477;DHT22;8349;50.928;6.376;2022-08-19T12:38:20;32.70;99.90
16477;DHT22;8349;50.928;6.376;2022-08-19T12:40:50;33.40;99.90
16477;DHT22;8349;50.928;6.376;2022-08-19T12:43:18;33.50;99.90
16477;DHT22;8349;50.928;6.376;2022-08-19T12:45:45;33.90;99.90
16477;DHT22;8349;50.928;6.376;2022-08-19T12:48:12;31.60;99.90
16477;DHT22;8349;50.928;6.376;2022-08-19T12:50:39;31.80;99.90
16477;DHT22;8349;50.928;6.376;2022-08-19T12:53:06;31.70;99.90
16477;DHT22;8349;50.928;6.376;2022-08-19T12:55:33;31.70;99.90
16477;DHT22;8349;50.928;6.376;2022-08-19T12:58:01;32.00;99.90
16477;DHT22;8349;50.928;6.376;2022-08-19T13:00:28;32.60;99.90
16477;DHT22;8349;50.928;6.376;2022-08-19T13:02:56;33.30;99.90
16477;DHT22;8349;50.928;6.376;2022-08-19T13:05:25;33.80;99.90
16477;DHT22;8349;50.928;6.376;2022-08-19T13:07:52;34.20;99.90
16477;DHT22;8349;50.928;6.376;2022-08-19T13:10:21;34.80;99.90
16477;DHT22;8349;50.928;6.376;2022-08-19T13:12:49;34.70;99.90
16477;DHT22;8349;50.928;6.376;2022-08-19T13:15:17;35.40;99.90
16477;DHT22;8349;50.928;6.376;2022-08-19T13:17:46;34.40;99.90
16477;DHT22;8349;50.928;6.376;2022-08-19T13:20:14;34.20;99.90
16477;DHT22;8349;50.928;6.376;2022-08-19T13:22:41;35.20;99.90
16477;DHT22;8349;50.928;6.376;2022-08-19T13:25:10;35.00;99.90
16477;DHT22;8349;50.928;6.376;2022-08-19T13:27:37;34.70;99.90
16477;DHT22;8349;50.928;6.376;2022-08-19T13:30:05;34.50;99.90
16477;DHT22;8349;50.928;6.376;2022-08-19T13:32:51;33.70;99.90
16477;DHT22;8349;50.928;6.376;2022-08-19T13:35:35;33.10;99.90
16477;DHT22;8349;50.928;6.376;2022-08-19T13:38:02;34.10;99.90
16477;DHT22;8349;50.928;6.376;2022-08-19T13:40:31;34.90;99.90
16477;DHT22;8349;50.928;6.376;2022-08-19T13:42:59;35.40;99.90
16477;DHT22;8349;50.928;6.376;2022-08-19T13:45:27;35.50;99.90
16477;DHT22;8349;50.928;6.376;2022-08-19T13:47:56;35.00;99.90
16477;DHT22;8349;50.928;6.376;2022-08-19T13:50:24;35.10;99.90
16477;DHT22;8349;50.928;6.376;2022-08-19T13:52:52;35.60;99.90
16477;DHT22;8349;50.928;6.376;2022-08-19T13:55:19;35.80;99.90
16477;DHT22;8349;50.928;6.376;2022-08-19T13:57:46;33.80;99.90
16477;DHT22;8349;50.928;6.376;2022-08-19T14:00:16;31.90;99.90
16477;DHT22;8349;50.928;6.376;2022-08-19T14:02:44;31.70;99.90
16477;DHT22;8349;50.928;6.376;2022-08-19T14:05:14;32.80;99.90
16477;DHT22;8349;50.928;6.376;2022-08-19T14:07:42;32.80;99.90
16477;DHT22;8349;50.928;6.376;2022-08-19T14:10:09;33.50;99.90
16477;DHT22;8349;50.928;6.376;2022-08-19T14:12:36;33.60;99.90
16477;DHT22;8349;50.928;6.376;2022-08-19T14:15:03;33.30;99.90
16477;DHT22;8349;50.928;6.376;2022-08-19T14:17:30;32.80;99.90
16477;DHT22;8349;50.928;6.376;2022-08-19T14:20:00;31.40;99.90
16477;DHT22;8349;50.928;6.376;2022-08-19T14:22:30;30.60;99.90
16477;DHT22;8349;50.928;6.376;2022-08-19T14:24:57;30.80;99.90
16477;DHT22;8349;50.928;6.376;2022-08-19T14:27:24;31.80;99.90
16477;DHT22;8349;50.928;6.376;2022-08-19T14:29:51;32.10;99.90
16477;DHT22;8349;50.928;6.376;2022-08-19T14:32:18;32.40;99.90
16477;DHT22;8349;50.928;6.376;2022-08-19T14:34:45;32.20;99.90
16477;DHT22;8349;50.928;6.376;2022-08-19T14:37:12;31.30;99.90
16477;DHT22;8349;50.928;6.376;2022-08-19T14:39:41;30.90;99.90
16477;DHT22;8349;50.928;6.376;2022-08-19T14:42:08;30.70;99.90
16477;DHT22;8349;50.928;6.376;2022-08-19T14:44:35;29.80;99.90
16477;DHT22;8349;50.928;6.376;2022-08-19T14:47:02;29.50;99.90
16477;DHT22;8349;50.928;6.376;2022-08-19T14:49:29;29.50;99.90
16477;DHT22;8349;50.928;6.376;2022-08-19T14:51:56;29.70;99.90
16477;DHT22;8349;50.928;6.376;2022-08-19T14:54:22;29.60;99.90
16477;DHT22;8349;50.928;6.376;2022-08-19T14:56:51;29.20;99.90
16477;DHT22;8349;50.928;6.376;2022-08-19T14:59:18;29.00;99.90
16477;DHT22;8349;50.928;6.376;2022-08-19T15:01:45;28.70;99.90
16477;DHT22;8349;50.928;6.376;2022-08-19T15:04:11;28.70;99.90
16477;DHT22;8349;50.928;6.376;2022-08-19T15:06:38;28.30;99.90
16477;DHT22;8349;50.928;6.376;2022-08-19T15:09:05;28.60;99.90
16477;DHT22;8349;50.928;6.376;2022-08-19T15:11:32;29.00;99.90
16477;DHT22;8349;50.928;6.376;2022-08-19T15:14:00;28.60;99.90
16477;DHT22;8349;50.928;6.376;2022-08-19T15:16:27;28.70;99.90
16477;DHT22;8349;50.928;6.376;2022-08-19T15:18:57;28.40;99.90
16477;DHT22;8349;50.928;6.376;2022-08-19T15:21:24;27.80;99.90
16477;DHT22;8349;50.928;6.376;2022-08-19T15:23:52;27.50;99.90
16477;DHT22;8349;50.928;6.376;2022-08-19T15:26:19;27.30;99.90
16477;DHT22;8349;50.928;6.376;2022-08-19T15:28:46;27.10;99.90
16477;DHT22;8349;50.928;6.376;2022-08-19T15:31:16;26.80;99.90
16477;DHT22;8349;50.928;6.376;2022-08-19T15:33:43;26.70;99.90
16477;DHT22;8349;50.928;6.376;2022-08-19T15:36:09;26.70;99.90
16477;DHT22;8349;50.928;6.376;2022-08-19T15:38:37;26.50;99.90
16477;DHT22;8349;50.928;6.376;2022-08-19T15:41:04;26.40;99.90
16477;DHT22;8349;50.928;6.376;2022-08-19T15:43:45;26.30;99.90
16477;DHT22;8349;50.928;6.376;2022-08-19T15:46:13;26.10;99.90
16477;DHT22;8349;50.928;6.376;2022-08-19T15:48:43;25.90;99.90
16477;DHT22;8349;50.928;6.376;2022-08-19T15:51:10;25.70;99.90